createdAt,value
2022-09-26T00:00:08.012Z,20.7
2022-09-26T00:02:24.801Z,20.5
2022-09-26T00:04:41.473Z,20.3
2022-09-26T00:06:58.222Z,20.5
2022-09-26T00:09:15.020Z,20.6
2022-09-26T00:11:31.765Z,20.5
2022-09-26T00:13:48.603Z,20.5
2022-09-26T00:16:05.071Z,20.4
2022-09-26T00:18:21.877Z,20.6
2022-09-26T00:20:38.659Z,20.5
2022-09-26T00:22:55.476Z,20.5
2022-09-26T00:25:12.031Z,20.5
2022-09-26T00:27:27.282Z,20.6
2022-09-26T00:29:43.925Z,20.5
2022-09-26T00:32:00.761Z,20.5
2022-09-26T00:34:17.502Z,20.2
2022-09-26T00:36:38.229Z,20.3
2022-09-26T00:38:51.067Z,20.4
2022-09-26T00:41:08.025Z,20.5
2022-09-26T00:43:24.562Z,20.6
2022-09-26T00:45:41.277Z,20.4
2022-09-26T00:47:58.211Z,20.4
2022-09-26T00:50:13.290Z,20.3
2022-09-26T00:52:29.419Z,20.6
2022-09-26T00:54:46.783Z,20.2
2022-09-26T00:57:03.542Z,20.3
2022-09-26T00:59:20.413Z,20.5
2022-09-26T01:01:35.939Z,20.3
2022-09-26T01:03:52.302Z,20.6
2022-09-26T01:06:09.044Z,20.2
2022-09-26T01:08:25.883Z,20.3
2022-09-26T01:10:41.235Z,20.5
2022-09-26T01:12:56.642Z,20.7
2022-09-26T01:15:12.288Z,20.6
2022-09-26T01:17:29.067Z,20.6
2022-09-26T01:19:44.690Z,20.4
2022-09-26T01:22:00.444Z,20.5
2022-09-26T01:24:17.274Z,20.6
2022-09-26T01:26:32.983Z,20.4
2022-09-26T01:28:49.519Z,20.8
2022-09-26T01:31:06.398Z,20.4
2022-09-26T01:33:23.234Z,20.1
2022-09-26T01:35:40.044Z,20.3
2022-09-26T01:37:56.274Z,20.4
2022-09-26T01:40:13.705Z,20.3
2022-09-26T01:42:30.338Z,20.3
2022-09-26T01:44:45.580Z,20.4
2022-09-26T01:47:02.229Z,20.6
2022-09-26T01:49:19.115Z,20.2
2022-09-26T01:51:35.967Z,20.2
2022-09-26T01:53:52.828Z,20.3
2022-09-26T01:56:08.111Z,20.4
2022-09-26T01:58:24.873Z,20.6
2022-09-26T02:00:41.604Z,20.3
2022-09-26T02:02:58.399Z,20.3
2022-09-26T02:05:15.293Z,20.3
2022-09-26T02:07:31.910Z,20.4
2022-09-26T02:09:48.696Z,20.3
2022-09-26T02:12:05.852Z,20.3
2022-09-26T02:14:22.220Z,19.9
2022-09-26T02:16:39.062Z,20
2022-09-26T02:18:55.845Z,20
2022-09-26T02:21:12.541Z,20.2
2022-09-26T02:23:29.321Z,20.3
2022-09-26T02:25:46.068Z,20.2
2022-09-26T02:28:02.769Z,20.2
2022-09-26T02:30:19.525Z,20.2
2022-09-26T02:32:34.783Z,20.2
2022-09-26T02:34:50.241Z,20.5
2022-09-26T02:37:06.972Z,20.5
2022-09-26T02:39:23.842Z,20.3
2022-09-26T02:41:40.727Z,20.3
2022-09-26T02:43:57.504Z,20.4
2022-09-26T02:46:14.358Z,20.4
2022-09-26T02:48:31.028Z,20.3
2022-09-26T02:50:47.758Z,20.3
2022-09-26T02:53:04.520Z,20.2
2022-09-26T02:55:21.343Z,20.3
2022-09-26T02:57:38.431Z,20.5
2022-09-26T02:59:54.893Z,20.2
2022-09-26T03:02:25.326Z,20.3
2022-09-26T03:04:40.799Z,20.6
2022-09-26T03:06:57.578Z,20.6
2022-09-26T03:09:14.587Z,20.1
2022-09-26T03:11:31.202Z,20.5
2022-09-26T03:13:48.093Z,20.2
2022-09-26T03:16:04.837Z,20.1
2022-09-26T03:18:20.062Z,20.3
2022-09-26T03:20:36.961Z,20.5
2022-09-26T03:22:53.824Z,20.2
2022-09-26T03:25:10.439Z,19.9
2022-09-26T03:27:27.281Z,20.1
2022-09-26T03:29:44.055Z,19.9
2022-09-26T03:32:00.883Z,20.1
2022-09-26T03:34:17.705Z,20.1
2022-09-26T03:36:34.318Z,20.3
2022-09-26T03:38:49.508Z,20.2
2022-09-26T03:41:04.865Z,20.7
2022-09-26T03:43:21.622Z,20.6
2022-09-26T03:45:37.202Z,20.1
2022-09-26T03:47:52.793Z,20.6
2022-09-26T03:50:09.351Z,20.6
2022-09-26T03:52:26.268Z,20.3
2022-09-26T03:54:43.151Z,20.2
2022-09-26T03:56:58.540Z,20.4
2022-09-26T03:59:15.467Z,20.6
2022-09-26T04:01:32.181Z,20
2022-09-26T04:03:50.717Z,20.4
2022-09-26T04:06:05.699Z,20.3
2022-09-26T04:08:22.798Z,20
2022-09-26T04:10:39.436Z,20.1
2022-09-26T04:12:56.134Z,20
2022-09-26T04:15:23.879Z,20.2
2022-09-26T04:17:40.743Z,20.1
2022-09-26T04:19:57.523Z,20.1
2022-09-26T04:22:12.785Z,19.9
2022-09-26T04:24:28.110Z,20.5
2022-09-26T04:26:43.698Z,20.5
2022-09-26T04:29:00.452Z,20.6
2022-09-26T04:31:17.413Z,20.3
2022-09-26T04:33:34.407Z,20.3
2022-09-26T04:35:51.006Z,20.2
2022-09-26T04:38:06.377Z,20.2
2022-09-26T04:40:23.093Z,20.5
2022-09-26T04:42:39.962Z,20.3
2022-09-26T04:44:56.762Z,20.3
2022-09-26T04:47:13.573Z,20.4
2022-09-26T04:49:30.508Z,20.3
2022-09-26T04:51:47.163Z,20.2
2022-09-26T04:54:03.981Z,20.1
2022-09-26T04:56:20.740Z,20.3
2022-09-26T04:58:35.907Z,19.8
2022-09-26T05:00:52.921Z,20.4
2022-09-26T05:03:09.570Z,20.3
2022-09-26T05:05:26.418Z,20.2
2022-09-26T05:07:43.255Z,20.3
2022-09-26T05:10:00.098Z,20.3
2022-09-26T05:12:15.218Z,20.2
2022-09-26T05:14:31.864Z,20.5
2022-09-26T05:16:48.845Z,20.3
2022-09-26T05:19:05.857Z,20.4
2022-09-26T05:21:22.416Z,20.3
2022-09-26T05:23:43.815Z,20.2
2022-09-26T05:25:56.049Z,20.2
2022-09-26T05:28:11.303Z,20.1
2022-09-26T05:30:26.677Z,20.6
2022-09-26T05:32:43.417Z,20.6
2022-09-26T05:35:00.314Z,20.1
2022-09-26T05:37:15.710Z,20.2
2022-09-26T05:39:32.408Z,20.6
2022-09-26T05:41:49.251Z,20.3
2022-09-26T05:44:06.167Z,20.2
2022-09-26T05:46:22.964Z,20.5
2022-09-26T05:48:39.732Z,20.5
2022-09-26T05:50:55.012Z,20.6
2022-09-26T05:53:11.666Z,20.7
2022-09-26T05:55:28.497Z,20.4
2022-09-26T05:57:45.303Z,20.5
2022-09-26T06:00:02.140Z,20.6
2022-09-26T06:02:20.803Z,20.5
2022-09-26T06:04:34.222Z,20.9
2022-09-26T06:06:50.934Z,20.3
2022-09-26T06:09:07.743Z,19.9
2022-09-26T06:11:24.492Z,19.6
2022-09-26T06:13:41.147Z,19.3
2022-09-26T06:15:57.904Z,19.4
2022-09-26T06:18:14.618Z,19.6
2022-09-26T06:20:31.411Z,19.4
2022-09-26T06:22:48.093Z,19.4
2022-09-26T06:25:03.274Z,19.4
2022-09-26T06:27:19.979Z,19.6
2022-09-26T06:29:36.662Z,19.5
2022-09-26T06:31:53.438Z,19.4
2022-09-26T06:34:10.057Z,19.7
2022-09-26T06:36:27.026Z,19.8
2022-09-26T06:38:43.458Z,19.7
2022-09-26T06:41:00.248Z,19.9
2022-09-26T06:43:16.918Z,19.9
2022-09-26T06:45:33.486Z,20.1
2022-09-26T06:47:48.619Z,20.3
2022-09-26T06:50:05.530Z,20.3
2022-09-26T06:52:22.009Z,20.4
2022-09-26T06:54:38.762Z,20.1
2022-09-26T06:56:55.214Z,20.4
2022-09-26T06:59:11.955Z,20.3
2022-09-26T07:01:28.454Z,20.6
2022-09-26T07:03:46.040Z,20.6
2022-09-26T07:06:01.374Z,20.9
2022-09-26T07:08:17.883Z,21
2022-09-26T07:10:49.619Z,21
2022-09-26T07:13:37.732Z,20.8
2022-09-26T07:15:54.020Z,21.1
2022-09-26T07:18:10.311Z,21.1
2022-09-26T07:20:26.913Z,21.3
2022-09-26T07:22:43.130Z,21.2
2022-09-26T07:24:59.490Z,21.6
2022-09-26T07:27:15.872Z,21.6
2022-09-26T07:29:32.381Z,21.6
2022-09-26T07:31:48.872Z,21.7
2022-09-26T07:34:05.269Z,21.6
2022-09-26T07:36:21.632Z,21.4
2022-09-26T07:38:36.782Z,21.5
2022-09-26T07:40:51.794Z,21.7
2022-09-26T07:43:20.342Z,21.7
2022-09-26T07:46:48.903Z,21.6
2022-09-26T07:49:05.538Z,21.8
2022-09-26T07:51:22.302Z,21.8
2022-09-26T07:53:39.063Z,21.8
2022-09-26T07:55:55.810Z,21.5
2022-09-26T07:58:12.055Z,21.6
2022-09-26T08:00:28.610Z,21.8
2022-09-26T08:02:45.187Z,21.7
2022-09-26T08:05:01.544Z,21.9
2022-09-26T08:07:16.388Z,21.9
2022-09-26T08:09:32.851Z,22.2
2022-09-26T08:11:49.059Z,22.3
2022-09-26T08:14:03.541Z,22.2
2022-09-26T08:16:18.862Z,22.4
2022-09-26T08:18:33.701Z,22.6
2022-09-26T08:20:48.672Z,22.6
2022-09-26T08:23:03.607Z,22.7
2022-09-26T08:25:19.702Z,22.8
2022-09-26T08:27:35.965Z,22.4
2022-09-26T08:29:51.981Z,22.9
2022-09-26T08:32:07.929Z,22.9
2022-09-26T08:34:25.468Z,23.1
2022-09-26T08:36:39.547Z,23.1
2022-09-26T08:38:54.930Z,23.1
2022-09-26T08:41:10.901Z,23.1
2022-09-26T08:43:26.429Z,23.2
2022-09-26T08:45:45.301Z,23
2022-09-26T08:47:57.830Z,23.1
2022-09-26T08:50:12.918Z,23.4
2022-09-26T08:52:27.710Z,23.3
2022-09-26T08:54:43.717Z,23.5
2022-09-26T08:56:58.910Z,23.2
2022-09-26T08:59:13.692Z,23.5
2022-09-26T09:02:25.517Z,22.9
2022-09-26T09:04:40.973Z,23.4
2022-09-26T09:06:56.063Z,23.4
2022-09-26T09:09:11.296Z,23.6
2022-09-26T09:11:26.688Z,23.4
2022-09-26T09:13:41.730Z,23.4
2022-09-26T09:16:11.571Z,23.4
2022-09-26T09:18:26.797Z,23.5
2022-09-26T09:20:42.390Z,23.6
2022-09-26T09:22:57.605Z,23.6
2022-09-26T09:25:13.066Z,23.6
2022-09-26T09:29:18.916Z,23.6
2022-09-26T09:31:29.236Z,23.6
2022-09-26T09:33:44.483Z,23.7
2022-09-26T09:36:00.582Z,23.6
2022-09-26T09:38:15.686Z,23.3
2022-09-26T09:40:32.130Z,23.8
2022-09-26T09:42:48.055Z,23.4
2022-09-26T09:45:03.039Z,23.4
2022-09-26T09:47:19.074Z,23.9
2022-09-26T09:49:34.138Z,24.1
2022-09-26T09:51:49.284Z,24.1
2022-09-26T09:54:04.443Z,24.1
2022-09-26T09:56:19.631Z,24
2022-09-26T09:58:34.832Z,23.9
2022-09-26T10:00:51.268Z,24.1
2022-09-26T10:03:06.493Z,23.9
2022-09-26T10:05:22.596Z,24.1
2022-09-26T10:08:03.233Z,23.9
2022-09-26T10:10:42.516Z,24.1
2022-09-26T10:12:57.615Z,24.1
2022-09-26T10:15:12.705Z,24.3
2022-09-26T10:17:27.276Z,24.1
2022-09-26T10:20:11.266Z,24.1
2022-09-26T10:22:26.445Z,24.1
2022-09-26T10:24:41.725Z,24
2022-09-26T10:26:56.881Z,24.2
2022-09-26T10:29:12.241Z,24.1
2022-09-26T10:31:27.497Z,24.1
2022-09-26T10:33:42.889Z,24
2022-09-26T10:35:57.951Z,24.3
2022-09-26T10:38:13.207Z,24
2022-09-26T10:40:28.444Z,24.1
2022-09-26T10:42:43.842Z,23.9
2022-09-26T10:44:59.191Z,23.9
2022-09-26T10:47:14.649Z,24.1
2022-09-26T10:49:29.857Z,24
2022-09-26T10:51:45.555Z,23.9
2022-09-26T10:54:00.802Z,24.1
2022-09-26T10:56:16.257Z,24
2022-09-26T10:58:31.542Z,23.9
2022-09-26T11:00:47.083Z,24.1
2022-09-26T11:03:02.236Z,23.9
2022-09-26T11:05:17.424Z,23.9
2022-09-26T11:07:32.940Z,23.9
2022-09-26T11:09:48.180Z,24
2022-09-26T11:12:03.897Z,23.9
2022-09-26T11:14:19.000Z,24.1
2022-09-26T11:16:37.205Z,23.8
2022-09-26T11:18:49.980Z,23.8
2022-09-26T11:21:11.197Z,23.9
2022-09-26T11:23:23.518Z,23.8
2022-09-26T11:25:38.731Z,23.8
2022-09-26T11:27:54.007Z,23.8
2022-09-26T11:30:09.364Z,23.8
2022-09-26T11:32:24.480Z,24
2022-09-26T11:34:39.802Z,23.8
2022-09-26T11:36:55.018Z,23.8
2022-09-26T11:39:10.196Z,23.8
2022-09-26T11:41:25.447Z,23.8
2022-09-26T11:43:40.650Z,23.9
2022-09-26T11:45:55.850Z,23.7
2022-09-26T11:48:11.145Z,23.8
2022-09-26T11:50:25.794Z,23.9
2022-09-26T11:52:44.350Z,23.8
2022-09-26T11:54:56.794Z,23.7
2022-09-26T11:57:12.089Z,23.9
2022-09-26T11:59:27.315Z,23.8
2022-09-26T12:01:42.479Z,23.7
2022-09-26T12:03:57.996Z,23.6
2022-09-26T12:06:12.521Z,23.9
2022-09-26T12:08:28.176Z,23.9
2022-09-26T12:10:43.273Z,23.8
2022-09-26T12:12:58.446Z,23.7
2022-09-26T12:15:13.729Z,23.9
2022-09-26T12:17:28.988Z,23.8
2022-09-26T12:19:44.127Z,23.6
2022-09-26T12:21:59.327Z,23.6
2022-09-26T12:24:14.505Z,23.8
2022-09-26T12:26:29.763Z,23.8
2022-09-26T12:28:45.039Z,23.6
2022-09-26T12:31:00.523Z,23.6
2022-09-26T12:33:15.657Z,23.6
2022-09-26T12:35:31.046Z,23.8
2022-09-26T12:37:46.267Z,23.8
2022-09-26T12:40:01.532Z,23.8
2022-09-26T12:42:17.007Z,23.8
2022-09-26T12:44:32.141Z,23.8
2022-09-26T12:46:47.607Z,23.7
2022-09-26T12:49:02.938Z,23.6
2022-09-26T12:51:18.335Z,24
2022-09-26T12:53:33.598Z,23.7
2022-09-26T12:55:48.591Z,23.7
2022-09-26T12:58:04.119Z,23.7
2022-09-26T13:00:19.257Z,23.9
2022-09-26T13:02:34.683Z,23.7
2022-09-26T13:04:49.842Z,23.7
2022-09-26T13:07:20.395Z,23.6
2022-09-26T13:09:34.291Z,23.6
2022-09-26T13:11:49.409Z,23.8
2022-09-26T13:14:04.703Z,23.7
2022-09-26T13:16:20.035Z,23.7
2022-09-26T13:18:35.589Z,23.7
2022-09-26T13:20:50.362Z,23.7
2022-09-26T13:23:05.647Z,23.7
2022-09-26T13:25:20.678Z,23.6
2022-09-26T13:27:36.654Z,23.6
2022-09-26T13:30:11.664Z,23.3
2022-09-26T13:32:26.625Z,23.9
2022-09-26T13:34:41.967Z,23.8
2022-09-26T13:36:56.836Z,23.8
2022-09-26T13:39:12.175Z,23.8
2022-09-26T13:41:27.887Z,23.6
2022-09-26T13:43:42.971Z,23.1
2022-09-26T13:45:58.842Z,23.8
2022-09-26T13:48:13.677Z,23.3
2022-09-26T13:50:28.513Z,23.8
2022-09-26T13:52:44.331Z,23.6
2022-09-26T13:54:59.464Z,23.2
2022-09-26T13:57:14.426Z,23.7
2022-09-26T13:59:29.465Z,23.7
2022-09-26T14:01:45.491Z,23.7
2022-09-26T14:04:00.403Z,23.3
2022-09-26T14:06:16.312Z,23.6
2022-09-26T14:08:30.571Z,23.1
2022-09-26T14:10:46.179Z,23.5
2022-09-26T14:13:02.293Z,23.6
2022-09-26T14:15:17.267Z,23.1
2022-09-26T14:17:33.350Z,23.4
2022-09-26T14:19:48.733Z,23.3
2022-09-26T14:22:04.389Z,23.7
2022-09-26T14:24:19.743Z,23
2022-09-26T14:26:34.559Z,23.6
2022-09-26T14:28:49.476Z,23.4
2022-09-26T14:31:05.828Z,23.6
2022-09-26T14:33:22.377Z,23.3
2022-09-26T14:35:38.412Z,23.5
2022-09-26T14:37:54.736Z,23.3
2022-09-26T14:40:10.783Z,23.5
2022-09-26T14:42:27.195Z,23.8
2022-09-26T14:44:43.043Z,23.5
2022-09-26T14:46:58.193Z,23.5
2022-09-26T14:49:13.030Z,23.3
2022-09-26T14:51:28.285Z,23.6
2022-09-26T14:53:43.301Z,23.4
2022-09-26T14:55:58.373Z,23.5
2022-09-26T14:58:15.164Z,23.4
2022-09-26T15:02:26.852Z,23
2022-09-26T15:04:43.183Z,23.3
2022-09-26T15:06:59.386Z,23.3
2022-09-26T15:09:15.383Z,23.3
2022-09-26T15:11:31.854Z,23.1
2022-09-26T15:13:46.866Z,23.2
2022-09-26T15:16:01.896Z,23.4
2022-09-26T15:18:16.621Z,23.4
2022-09-26T15:20:33.191Z,23.4
2022-09-26T15:22:49.067Z,23.3
2022-09-26T15:25:06.014Z,23.2
2022-09-26T15:27:21.096Z,23.1
2022-09-26T15:29:35.939Z,23.4
2022-09-26T15:31:50.736Z,23.5
2022-09-26T15:34:05.859Z,23.3
2022-09-26T15:36:22.425Z,23.4
2022-09-26T15:38:38.924Z,23.2
2022-09-26T15:40:55.416Z,23.2
2022-09-26T15:43:11.781Z,23
2022-09-26T15:45:28.062Z,23.3
2022-09-26T15:47:44.230Z,23.2
2022-09-26T15:50:00.522Z,23.1
2022-09-26T15:52:16.851Z,23.1
2022-09-26T15:54:33.175Z,22.9
2022-09-26T15:56:48.127Z,23.1
2022-09-26T15:59:04.530Z,23.3
2022-09-26T16:01:20.977Z,22.8
2022-09-26T16:03:35.885Z,23.2
2022-09-26T16:05:52.691Z,23.2
2022-09-26T16:08:08.769Z,22.9
2022-09-26T16:10:25.133Z,23
2022-09-26T16:12:41.451Z,23
2022-09-26T16:14:57.830Z,23.1
2022-09-26T16:17:14.117Z,23
2022-09-26T16:19:29.150Z,22.8
2022-09-26T17:35:11.408Z,21.8
2022-09-26T17:37:26.240Z,22.8
2022-09-26T17:39:44.075Z,22.8
2022-09-26T17:42:01.838Z,23.2
2022-09-26T17:44:18.914Z,22.6
2022-09-26T17:46:36.228Z,22.8
2022-09-26T17:48:53.202Z,22.6
2022-09-26T17:51:10.159Z,22.6
2022-09-26T17:53:26.938Z,22.6
2022-09-26T17:55:43.588Z,23
2022-09-26T17:58:00.104Z,22.6
2022-09-26T18:00:16.662Z,22.7
2022-09-26T18:02:33.116Z,22.6
2022-09-26T18:04:49.446Z,22.6
2022-09-26T18:07:05.781Z,22.6
2022-09-26T18:09:22.121Z,22.6
2022-09-26T18:11:38.261Z,22.4
2022-09-26T18:13:55.013Z,22.4
2022-09-26T18:16:11.086Z,22.5
2022-09-26T18:18:27.226Z,22.4
2022-09-26T18:20:43.717Z,22.4
2022-09-26T18:22:59.949Z,22.4
2022-09-26T18:25:16.390Z,22.4
2022-09-26T18:27:32.493Z,22.5
2022-09-26T18:29:49.030Z,22.5
2022-09-26T18:32:05.151Z,22.5
2022-09-26T18:34:21.629Z,22.5
2022-09-26T18:36:37.840Z,22.6
2022-09-26T18:38:54.479Z,22.4
2022-09-26T18:41:10.529Z,22.3
2022-09-26T18:43:26.646Z,22.6
2022-09-26T18:45:43.075Z,22.5
2022-09-26T18:47:59.256Z,22.7
2022-09-26T18:50:15.781Z,22.6
2022-09-26T18:52:31.893Z,22.7
2022-09-26T18:54:48.439Z,22.6
2022-09-26T18:57:04.558Z,22.7
2022-09-26T18:59:22.839Z,22.6
2022-09-26T19:01:37.354Z,22.6
2022-09-26T19:03:53.306Z,22.6
2022-09-26T19:06:08.581Z,22.4
2022-09-26T19:08:24.805Z,22.8
2022-09-26T19:10:41.553Z,22.5
2022-09-26T19:12:57.523Z,22.5
2022-09-26T19:15:13.992Z,22.6
2022-09-26T19:17:30.257Z,22.4
2022-09-26T19:19:46.690Z,22.3
2022-09-26T19:22:02.934Z,22.6
2022-09-26T19:24:19.351Z,22.4
2022-09-26T19:26:35.650Z,22.3
2022-09-26T19:28:51.873Z,22.6
2022-09-26T19:31:08.291Z,22.6
2022-09-26T19:33:24.432Z,22.6
2022-09-26T19:35:40.909Z,22.4
2022-09-26T19:37:57.264Z,22.4
2022-09-26T19:40:13.594Z,22.5
2022-09-26T19:42:29.874Z,22.4
2022-09-26T19:44:46.516Z,22.6
2022-09-26T19:47:02.616Z,22.3
2022-09-26T19:49:18.757Z,22.6
2022-09-26T19:51:35.296Z,22.5
2022-09-26T19:53:51.406Z,22.3
2022-09-26T19:56:08.025Z,22.3
2022-09-26T19:58:24.127Z,22.5
2022-09-26T20:00:40.643Z,22.3
2022-09-26T20:02:57.008Z,22.3
2022-09-26T20:05:13.310Z,22.3
2022-09-26T20:07:29.531Z,22.6
2022-09-26T20:09:46.251Z,22.3
2022-09-26T20:12:02.305Z,22.3
2022-09-26T20:14:18.429Z,22.6
2022-09-26T20:16:34.966Z,22.4
2022-09-26T20:18:51.177Z,22.3
2022-09-26T20:21:07.648Z,22.1
2022-09-26T20:23:23.944Z,22.3
2022-09-26T20:25:40.501Z,22.4
2022-09-26T20:27:56.658Z,22.3
2022-09-26T20:30:13.311Z,22.2
2022-09-26T20:32:29.357Z,22.3
2022-09-26T20:34:45.475Z,22.3
2022-09-26T20:37:02.096Z,22.3
2022-09-26T20:39:18.281Z,22.2
2022-09-26T20:41:34.643Z,22.2
2022-09-26T20:43:50.973Z,22.2
2022-09-26T20:46:07.526Z,22.1
2022-09-26T20:48:23.701Z,22.3
2022-09-26T20:50:40.283Z,22.3
2022-09-26T20:52:56.682Z,22.1
2022-09-26T20:55:12.976Z,21.8
2022-09-26T20:57:29.118Z,22.1
2022-09-26T20:59:45.383Z,22.1
2022-09-26T21:02:01.959Z,22.1
2022-09-26T21:04:17.065Z,22.2
2022-09-26T21:06:33.420Z,22.3
2022-09-26T21:08:48.449Z,22.1
2022-09-26T21:11:05.022Z,22.4
2022-09-26T21:13:20.126Z,21.9
2022-09-26T21:15:36.886Z,22.3
2022-09-26T21:17:53.279Z,21.9
2022-09-26T21:20:09.613Z,21.9
2022-09-26T21:22:26.187Z,21.9
2022-09-26T21:24:42.454Z,22.1
2022-09-26T21:26:59.007Z,22.2
2022-09-26T21:29:15.240Z,21.9
2022-09-26T21:31:31.883Z,22
2022-09-26T21:33:48.215Z,22.1
2022-09-26T21:36:04.598Z,22.1
2022-09-26T21:38:20.910Z,21.9
2022-09-26T21:40:37.487Z,22.1
2022-09-26T21:42:53.511Z,21.9
2022-09-26T21:45:09.817Z,21.8
2022-09-26T21:47:25.074Z,21.9
2022-09-26T21:49:41.415Z,22.3
2022-09-26T21:51:58.059Z,21.8
2022-09-26T21:54:13.053Z,21.9
2022-09-26T21:56:29.633Z,22.1
2022-09-26T21:58:46.092Z,21.9
2022-09-26T22:01:02.911Z,21.9
2022-09-26T22:03:19.012Z,21.9
2022-09-26T22:05:35.401Z,21.9
2022-09-26T22:07:51.860Z,21.8
2022-09-26T22:10:08.158Z,22.1
2022-09-26T22:12:23.370Z,21.9
2022-09-26T22:14:39.727Z,22.1
2022-09-26T22:16:55.030Z,21.6
2022-09-26T22:19:11.276Z,22.1
2022-09-26T22:21:28.021Z,21.8
2022-09-26T22:23:44.432Z,21.7
2022-09-26T22:26:00.883Z,21.8
2022-09-26T22:28:15.878Z,21.7
2022-09-26T22:30:32.393Z,21.9
2022-09-26T22:32:49.022Z,21.6
2022-09-26T22:35:05.323Z,21.8
2022-09-26T22:37:21.964Z,21.7
2022-09-26T22:39:38.262Z,21.8
2022-09-26T22:41:53.460Z,21.9
2022-09-26T22:44:09.799Z,21.9
2022-09-26T22:46:26.763Z,21.7
2022-09-26T22:48:42.816Z,21.7
2022-09-26T22:50:59.229Z,21.7
2022-09-26T22:53:15.698Z,21.9
2022-09-26T22:55:32.076Z,21.6
2022-09-26T22:57:47.233Z,21.7
2022-09-26T23:00:03.579Z,21.9
2022-09-26T23:02:20.305Z,21.5
2022-09-26T23:04:35.200Z,21.8
2022-09-26T23:06:51.792Z,21.8
2022-09-26T23:09:08.581Z,21.6
2022-09-26T23:11:23.485Z,21.6
2022-09-26T23:13:39.923Z,21.9
2022-09-26T23:15:56.357Z,21.4
2022-09-26T23:18:12.802Z,21.5
2022-09-26T23:20:29.370Z,21.7
2022-09-26T23:22:45.778Z,21.6
2022-09-26T23:25:02.127Z,21.7
2022-09-26T23:27:18.712Z,21.6
2022-09-26T23:29:35.003Z,21.6
2022-09-26T23:31:51.727Z,21.8
2022-09-26T23:34:07.781Z,21.5
2022-09-26T23:36:23.973Z,21.6
2022-09-26T23:38:40.504Z,21.7
2022-09-26T23:40:57.079Z,21.7
2022-09-26T23:43:12.014Z,21.6
2022-09-26T23:45:28.390Z,21.7
2022-09-26T23:47:45.173Z,21.3
2022-09-26T23:50:01.386Z,21.5
2022-09-26T23:52:17.998Z,21.8
2022-09-26T23:54:34.313Z,21.7
2022-09-26T23:56:50.834Z,21.5
2022-09-26T23:59:07.119Z,21.6
